Time;durP1;ratioP1;P1;durP2;ratioP2;P2;SDS_P1;SDS_P2;PMS_P1;PMS_P2;Temp;Humidity;BMP_temperature;BMP_pressure;BME280_temperature;BME280_humidity;BME280_pressure;Samples;Min_cycle;Max_cycle;Signal;HPM_P1;HPM_P2
2022/08/26 00:00:32;;;;;;;7.80;1.40;;;20.80;99.90;;;;;;5028032;28;39134;-74
2022/08/26 00:02:58;;;;;;;9.70;1.92;;;20.70;99.90;;;;;;5042796;28;37658;-74
2022/08/26 00:05:25;;;;;;;8.55;1.27;;;20.70;99.90;;;;;;5041746;28;38945;-75
2022/08/26 00:07:52;;;;;;;5.53;1.00;;;20.70;99.90;;;;;;5048497;28;37070;-74
2022/08/26 00:10:20;;;;;;;10.25;1.75;;;20.60;99.90;;;;;;5030885;28;38507;-73
2022/08/26 00:12:46;;;;;;;9.40;1.50;;;20.70;99.90;;;;;;5050141;28;36701;-74
2022/08/26 00:15:14;;;;;;;9.95;1.20;;;20.70;99.90;;;;;;5027134;28;39609;-73
2022/08/26 00:17:40;;;;;;;11.20;1.60;;;20.70;99.90;;;;;;5042724;28;37085;-74
2022/08/26 00:20:09;;;;;;;8.13;1.65;;;20.60;99.90;;;;;;5034088;28;38346;-74
2022/08/26 00:22:36;;;;;;;7.00;1.92;;;20.60;99.90;;;;;;5034748;28;37781;-74
2022/08/26 00:25:03;;;;;;;5.97;1.40;;;20.60;99.90;;;;;;5031525;28;39020;-74
2022/08/26 00:27:32;;;;;;;7.35;1.50;;;20.60;99.90;;;;;;5033492;28;47789;-74
2022/08/26 00:30:00;;;;;;;6.00;1.65;;;20.60;99.90;;;;;;5033115;28;37802;-74
2022/08/26 00:32:26;;;;;;;3.58;0.90;;;20.60;99.90;;;;;;5039532;28;38107;-75
2022/08/26 00:34:52;;;;;;;8.50;1.45;;;20.60;99.90;;;;;;5042177;28;39525;-73
2022/08/26 00:37:19;;;;;;;7.32;1.30;;;20.60;99.90;;;;;;5039988;28;39522;-74
2022/08/26 00:39:45;;;;;;;6.65;1.13;;;20.50;99.90;;;;;;5043226;28;37937;-74
2022/08/26 00:42:11;;;;;;;6.32;1.05;;;20.50;99.90;;;;;;5042512;28;37462;-73
2022/08/26 00:44:37;;;;;;;7.82;1.63;;;20.40;99.90;;;;;;5041798;28;38500;-74
2022/08/26 00:47:18;;;;;;;7.20;1.70;;;20.40;99.90;;;;;;5041197;28;38325;-73
2022/08/26 00:49:46;;;;;;;2.97;1.08;;;20.50;99.90;;;;;;5037477;28;38622;-74
2022/08/26 00:52:17;;;;;;;7.40;1.45;;;20.40;99.90;;;;;;5032019;28;35762;-73
2022/08/26 00:55:03;;;;;;;5.45;1.35;;;20.40;99.90;;;;;;5038222;28;40151;-74
2022/08/26 00:57:30;;;;;;;6.38;1.42;;;20.40;99.90;;;;;;5036120;28;40268;-74
2022/08/26 01:00:00;;;;;;;8.35;1.42;;;20.30;99.90;;;;;;5040732;28;38931;-75
2022/08/26 01:02:26;;;;;;;4.32;0.93;;;20.30;99.90;;;;;;5041369;28;37470;-75
2022/08/26 01:04:56;;;;;;;7.13;1.92;;;20.30;99.90;;;;;;5036458;28;39385;-74
2022/08/26 01:07:27;;;;;;;5.90;1.20;;;20.30;99.90;;;;;;5039554;28;39940;-75
2022/08/26 01:09:55;;;;;;;3.15;1.17;;;20.30;99.90;;;;;;5034851;28;39067;-75
2022/08/26 01:12:23;;;;;;;7.47;1.23;;;20.30;99.90;;;;;;5035075;28;37435;-75
2022/08/26 01:14:50;;;;;;;4.10;1.15;;;20.30;99.90;;;;;;5036876;28;39258;-74
2022/08/26 01:17:17;;;;;;;4.70;0.70;;;20.30;99.90;;;;;;5048322;27;37377;-74
2022/08/26 01:19:47;;;;;;;4.45;1.25;;;20.30;99.90;;;;;;5056391;28;39748;-75
2022/08/26 01:22:26;;;;;;;4.90;1.20;;;20.20;99.90;;;;;;5059388;28;37247;-74
2022/08/26 01:24:52;;;;;;;3.67;0.82;;;20.20;99.90;;;;;;5059598;28;36772;-74
2022/08/26 01:27:20;;;;;;;5.45;0.90;;;20.20;99.90;;;;;;5059589;27;38796;-75
2022/08/26 01:29:48;;;;;;;8.48;1.98;;;20.20;99.90;;;;;;5079602;28;39205;-74
2022/08/26 01:32:18;;;;;;;5.55;1.25;;;20.20;99.90;;;;;;5046201;28;39435;-74
2022/08/26 01:34:46;;;;;;;2.78;0.90;;;20.30;99.90;;;;;;5053202;28;39877;-75
2022/08/26 01:37:15;;;;;;;4.65;1.30;;;20.30;99.90;;;;;;5040481;28;39864;-75
2022/08/26 01:39:42;;;;;;;8.45;1.15;;;20.30;99.90;;;;;;5058454;28;38031;-74
2022/08/26 01:42:11;;;;;;;6.70;1.08;;;20.30;99.90;;;;;;5039201;28;38864;-76
2022/08/26 01:44:46;;;;;;;7.22;1.52;;;20.20;99.90;;;;;;5057504;28;39976;-75
2022/08/26 01:47:14;;;;;;;9.65;1.42;;;20.30;99.90;;;;;;5058004;28;39480;-74
2022/08/26 01:49:42;;;;;;;6.55;1.20;;;20.20;99.90;;;;;;5039035;28;38992;-75
2022/08/26 01:52:11;;;;;;;8.07;1.30;;;20.20;99.90;;;;;;5058330;28;37070;-75
2022/08/26 01:54:37;;;;;;;4.13;1.05;;;20.20;99.90;;;;;;5037282;28;39232;-74
2022/08/26 01:57:04;;;;;;;8.48;1.25;;;20.10;99.90;;;;;;5041934;28;38379;-74
2022/08/26 01:59:30;;;;;;;6.95;1.17;;;20.10;99.90;;;;;;5055442;28;38213;-75
2022/08/26 02:01:56;;;;;;;7.95;1.17;;;20.10;99.90;;;;;;5038096;28;37556;-75
2022/08/26 02:04:34;;;;;;;7.95;1.27;;;20.20;99.90;;;;;;5043828;28;39633;-74
2022/08/26 02:07:03;;;;;;;6.03;1.17;;;20.20;99.90;;;;;;5060263;28;38499;-74
2022/08/26 02:09:29;;;;;;;8.57;1.42;;;20.20;99.90;;;;;;5078836;28;48751;-74
2022/08/26 02:11:57;;;;;;;11.23;1.60;;;20.20;99.90;;;;;;5067846;28;38527;-74
2022/08/26 02:14:28;;;;;;;4.00;1.40;;;20.10;99.90;;;;;;5073201;28;39696;-75
2022/08/26 02:16:55;;;;;;;3.25;1.35;;;20.00;99.90;;;;;;5055737;28;38918;-74
2022/08/26 02:19:29;;;;;;;6.57;1.70;;;20.10;99.90;;;;;;5039868;28;37056;-74
2022/08/26 02:21:59;;;;;;;4.63;0.80;;;20.00;99.90;;;;;;5072479;28;37509;-74
2022/08/26 02:24:28;;;;;;;5.13;1.55;;;19.90;99.90;;;;;;5063752;28;39673;-74
2022/08/26 02:26:56;;;;;;;5.18;1.30;;;20.00;99.90;;;;;;5061614;28;40261;-74
2022/08/26 02:29:34;;;;;;;6.40;1.17;;;20.00;99.90;;;;;;5074774;28;39126;-74
2022/08/26 02:32:00;;;;;;;6.50;1.08;;;20.00;99.90;;;;;;5041651;28;38174;-74
2022/08/26 02:34:29;;;;;;;4.35;0.88;;;20.10;99.90;;;;;;5062330;28;39909;-74
2022/08/26 02:36:56;;;;;;;6.93;1.02;;;20.10;99.90;;;;;;5061672;28;39603;-74
2022/08/26 02:39:23;;;;;;;5.20;1.02;;;20.10;99.90;;;;;;5060796;28;37310;-74
2022/08/26 02:41:49;;;;;;;4.82;1.10;;;20.10;99.90;;;;;;5041498;28;37943;-74
2022/08/26 02:44:15;;;;;;;8.68;1.13;;;20.10;99.90;;;;;;5058479;28;38723;-74
2022/08/26 02:46:41;;;;;;;1.63;0.85;;;20.00;99.90;;;;;;5038411;28;38659;-74
2022/08/26 02:49:07;;;;;;;3.72;1.15;;;20.00;99.90;;;;;;5059018;28;37872;-74
2022/08/26 02:51:33;;;;;;;5.30;0.80;;;20.00;99.90;;;;;;5058193;28;37315;-74
2022/08/26 02:53:59;;;;;;;3.80;1.05;;;19.90;99.90;;;;;;5044997;28;38829;-75
2022/08/26 02:56:28;;;;;;;4.05;1.33;;;20.00;99.90;;;;;;5056063;28;38883;-75
2022/08/26 02:58:54;;;;;;;3.17;0.85;;;20.00;99.90;;;;;;5046592;28;38864;-75
2022/08/26 03:01:31;;;;;;;6.22;1.20;;;20.00;99.90;;;;;;5056450;28;38164;-74
2022/08/26 03:03:58;;;;;;;5.80;1.30;;;20.00;99.90;;;;;;5060342;28;39355;-74
2022/08/26 03:06:24;;;;;;;5.45;1.42;;;20.00;99.90;;;;;;5038730;28;39031;-74
2022/08/26 03:08:51;;;;;;;7.00;1.25;;;20.00;99.90;;;;;;5063591;28;38332;-75
2022/08/26 03:11:18;;;;;;;2.53;0.70;;;20.00;99.90;;;;;;5080489;28;37459;-75
2022/08/26 03:13:44;;;;;;;4.25;1.10;;;20.00;99.90;;;;;;5065711;28;39076;-75
2022/08/26 03:16:12;;;;;;;5.57;0.80;;;20.00;99.90;;;;;;5068147;28;38190;-74
2022/08/26 03:18:38;;;;;;;6.90;0.88;;;20.00;99.90;;;;;;5068647;27;39335;-74
2022/08/26 03:21:13;;;;;;;6.85;1.25;;;20.00;99.90;;;;;;5077431;28;35977;-74
2022/08/26 03:23:40;;;;;;;5.63;1.27;;;20.00;99.90;;;;;;5083958;28;41302;-74
2022/08/26 03:26:08;;;;;;;4.53;1.08;;;19.90;99.90;;;;;;5060369;28;36180;-75
2022/08/26 03:28:35;;;;;;;4.88;1.30;;;20.00;99.90;;;;;;5065285;28;36812;-75
2022/08/26 03:31:01;;;;;;;7.20;1.10;;;20.00;99.90;;;;;;5079732;28;37863;-75
2022/08/26 03:33:27;;;;;;;7.55;1.20;;;20.10;99.90;;;;;;5060669;28;47266;-74
2022/08/26 03:35:54;;;;;;;5.25;1.13;;;20.10;99.90;;;;;;5063640;28;36940;-74
2022/08/26 03:38:23;;;;;;;4.60;1.00;;;20.00;99.90;;;;;;5061989;28;36969;-75
2022/08/26 03:40:50;;;;;;;6.20;1.25;;;19.90;99.90;;;;;;5076093;28;37123;-75
2022/08/26 03:43:17;;;;;;;4.28;0.95;;;19.90;99.90;;;;;;5077773;27;39180;-75
2022/08/26 03:45:43;;;;;;;5.53;1.15;;;20.00;99.90;;;;;;5078526;28;38596;-75
2022/08/26 03:48:10;;;;;;;6.90;0.93;;;20.00;99.90;;;;;;5074114;27;38764;-74
2022/08/26 03:50:36;;;;;;;4.05;0.90;;;20.00;99.90;;;;;;5079734;28;37189;-75
2022/08/26 03:53:03;;;;;;;6.70;1.02;;;20.00;99.90;;;;;;5081436;27;38583;-74
2022/08/26 03:55:31;;;;;;;5.40;0.88;;;20.00;99.90;;;;;;5061097;28;38794;-75
2022/08/26 03:57:58;;;;;;;5.03;0.82;;;20.00;99.90;;;;;;5072680;27;37954;-75
2022/08/26 04:00:24;;;;;;;7.70;1.20;;;20.00;99.90;;;;;;5077078;28;38289;-74
2022/08/26 04:02:51;;;;;;;3.83;0.95;;;20.00;99.90;;;;;;5074837;28;39236;-74
2022/08/26 04:05:19;;;;;;;2.85;0.55;;;20.00;99.90;;;;;;5082532;28;39299;-75
2022/08/26 04:07:45;;;;;;;4.07;0.95;;;20.00;99.90;;;;;;5059098;28;38759;-73
2022/08/26 04:10:16;;;;;;;4.35;0.70;;;20.00;99.90;;;;;;5061089;28;38505;-73
2022/08/26 04:12:43;;;;;;;6.15;0.88;;;20.00;99.90;;;;;;5077736;27;38945;-73
2022/08/26 04:15:12;;;;;;;5.10;0.95;;;20.00;99.90;;;;;;5077985;28;38299;-74
2022/08/26 04:17:39;;;;;;;7.75;1.08;;;20.00;99.90;;;;;;5071307;27;37890;-74
2022/08/26 04:20:06;;;;;;;4.70;1.00;;;20.10;99.90;;;;;;5070412;28;38023;-74
2022/08/26 04:22:33;;;;;;;3.55;0.68;;;20.00;99.90;;;;;;5075836;28;39601;-74
2022/08/26 04:24:59;;;;;;;7.35;0.90;;;20.10;99.90;;;;;;5064749;28;37375;-74
2022/08/26 04:27:25;;;;;;;8.13;1.20;;;20.00;99.90;;;;;;5065996;27;38341;-74
2022/08/26 04:29:51;;;;;;;9.80;1.45;;;20.00;99.90;;;;;;5081997;27;37952;-74
2022/08/26 04:32:17;;;;;;;6.38;1.08;;;20.00;99.90;;;;;;5038497;28;39737;-74
2022/08/26 04:34:43;;;;;;;7.65;1.10;;;20.00;99.90;;;;;;5061590;28;38226;-74
2022/08/26 04:37:10;;;;;;;11.68;2.35;;;20.00;99.90;;;;;;5059694;28;38098;-74
2022/08/26 04:39:36;;;;;;;5.63;1.17;;;20.00;99.90;;;;;;5037434;28;38015;-74
2022/08/26 04:42:02;;;;;;;7.55;1.25;;;20.00;99.90;;;;;;5039396;28;39662;-74
2022/08/26 04:44:29;;;;;;;6.63;1.42;;;20.10;99.90;;;;;;5052772;28;39582;-74
2022/08/26 04:46:57;;;;;;;8.02;1.38;;;20.10;99.90;;;;;;5039583;28;38289;-74
2022/08/26 04:49:23;;;;;;;4.35;1.10;;;20.00;99.90;;;;;;5059078;28;36995;-75
2022/08/26 04:51:49;;;;;;;5.97;1.40;;;20.00;99.90;;;;;;5057116;28;39246;-74
2022/08/26 04:54:15;;;;;;;9.40;1.50;;;20.00;99.90;;;;;;5053949;28;38478;-74
2022/08/26 04:56:43;;;;;;;8.63;1.70;;;20.00;99.90;;;;;;5033943;28;39152;-74
2022/08/26 04:59:14;;;;;;;9.13;1.45;;;20.00;99.90;;;;;;5060877;28;36920;-74
2022/08/26 05:01:51;;;;;;;5.72;1.55;;;20.00;99.90;;;;;;5052709;28;39821;-74
2022/08/26 05:04:19;;;;;;;9.98;1.77;;;20.00;99.90;;;;;;5040186;28;40502;-74
2022/08/26 05:06:47;;;;;;;6.93;1.60;;;20.00;99.90;;;;;;5056326;28;37729;-74
2022/08/26 05:09:13;;;;;;;5.78;1.40;;;20.00;99.90;;;;;;5077061;28;37419;-74
2022/08/26 05:11:40;;;;;;;8.88;1.48;;;20.00;99.90;;;;;;5076660;28;38793;-74
2022/08/26 05:14:06;;;;;;;6.65;1.10;;;20.00;99.90;;;;;;5073254;27;37918;-74
2022/08/26 05:16:33;;;;;;;13.57;1.67;;;20.10;99.90;;;;;;5062770;28;38038;-74
2022/08/26 05:18:59;;;;;;;3.20;0.90;;;20.10;99.90;;;;;;5063955;28;36891;-74
2022/08/26 05:21:27;;;;;;;5.47;1.20;;;20.10;99.90;;;;;;5079117;28;40175;-74
2022/08/26 05:23:54;;;;;;;7.60;1.70;;;20.10;99.90;;;;;;5068541;28;39316;-74
2022/08/26 05:26:23;;;;;;;5.63;0.95;;;20.00;99.90;;;;;;5058694;28;39273;-74
2022/08/26 05:28:50;;;;;;;4.88;1.00;;;20.10;99.90;;;;;;5061691;28;39347;-74
2022/08/26 05:31:20;;;;;;;33.55;2.72;;;20.10;99.90;;;;;;5058464;28;39822;-74
2022/08/26 05:33:46;;;;;;;9.48;1.85;;;20.10;99.90;;;;;;5037221;28;39633;-74
2022/08/26 05:36:16;;;;;;;8.05;1.20;;;20.10;99.90;;;;;;5061628;28;38998;-75
2022/08/26 05:38:42;;;;;;;10.50;1.38;;;20.10;99.90;;;;;;5058086;28;37335;-73
2022/08/26 05:41:23;;;;;;;34.92;3.03;;;20.20;99.90;;;;;;5063062;28;39835;-75
2022/08/26 05:43:50;;;;;;;8.18;1.55;;;20.20;99.90;;;;;;5046688;28;39160;-74
2022/08/26 05:46:17;;;;;;;12.55;1.55;;;20.20;99.90;;;;;;5053138;28;39383;-74
2022/08/26 05:48:44;;;;;;;5.93;1.15;;;20.20;99.90;;;;;;5051471;28;38353;-74
2022/08/26 05:51:10;;;;;;;8.75;1.90;;;20.30;99.90;;;;;;5047238;28;38789;-74
2022/08/26 05:53:39;;;;;;;4.43;0.77;;;20.30;99.90;;;;;;5038227;28;37788;-73
2022/08/26 05:56:07;;;;;;;6.63;1.02;;;20.30;99.90;;;;;;5050217;28;38197;-74
2022/08/26 05:58:35;;;;;;;2.97;0.90;;;20.30;99.90;;;;;;5056436;28;37598;-74
2022/08/26 06:01:13;;;;;;;5.38;1.23;;;20.20;99.90;;;;;;5052459;28;40011;-76
2022/08/26 06:03:43;;;;;;;5.13;0.80;;;20.20;99.90;;;;;;5068268;28;47431;-76
2022/08/26 06:06:13;;;;;;;16.48;2.10;;;20.20;99.90;;;;;;5076861;28;38957;-75
2022/08/26 06:08:40;;;;;;;9.93;1.25;;;20.20;99.90;;;;;;5054403;28;37243;-76
2022/08/26 06:11:09;;;;;;;6.22;1.23;;;20.30;99.90;;;;;;5058428;28;39279;-76
2022/08/26 06:13:37;;;;;;;7.25;0.77;;;20.20;99.90;;;;;;5057983;28;39165;-76
2022/08/26 06:16:07;;;;;;;6.65;0.95;;;20.20;99.90;;;;;;5059504;28;38905;-76
2022/08/26 06:18:37;;;;;;;9.68;1.30;;;20.20;99.90;;;;;;5057081;28;38998;-74
2022/08/26 06:21:20;;;;;;;8.60;1.40;;;20.20;99.90;;;;;;5060864;28;20049;-76
2022/08/26 06:26:32;;;;;;;7.88;0.85;;;20.20;99.90;;;;;;5058127;28;50533;-76
2022/08/26 06:28:59;;;;;;;5.53;0.90;;;20.20;99.90;;;;;;5042086;28;37706;-76
2022/08/26 06:31:26;;;;;;;5.43;0.73;;;20.20;99.90;;;;;;5052478;28;39271;-76
2022/08/26 06:33:53;;;;;;;5.03;1.08;;;20.30;99.90;;;;;;5057584;28;38582;-76
2022/08/26 06:36:22;;;;;;;2.58;0.77;;;20.30;99.90;;;;;;5059794;28;39108;-76
2022/08/26 06:38:50;;;;;;;8.88;1.40;;;20.30;99.90;;;;;;5065991;28;37964;-76
2022/08/26 06:41:19;;;;;;;7.30;0.88;;;20.20;99.90;;;;;;5080316;28;40213;-76
2022/08/26 06:43:46;;;;;;;5.55;0.82;;;20.20;99.90;;;;;;5079960;27;38262;-76
2022/08/26 06:46:16;;;;;;;3.92;0.80;;;20.20;99.90;;;;;;5075422;28;39005;-77
2022/08/26 06:48:43;;;;;;;4.63;0.90;;;20.20;99.90;;;;;;5063980;28;37662;-76
2022/08/26 06:51:15;;;;;;;8.18;0.80;;;20.10;99.90;;;;;;5077018;28;39052;-75
2022/08/26 06:53:45;;;;;;;2.70;0.57;;;20.20;99.90;;;;;;5073770;28;39179;-75
2022/08/26 06:56:13;;;;;;;3.83;0.60;;;20.20;99.90;;;;;;5041401;28;38598;-75
2022/08/26 06:58:40;;;;;;;3.78;0.65;;;20.20;99.90;;;;;;5058815;28;38238;-75
2022/08/26 07:01:21;;;;;;;4.47;0.80;;;20.20;99.90;;;;;;5041304;28;36323;-75
2022/08/26 07:03:49;;;;;;;3.53;0.70;;;20.20;99.90;;;;;;5041580;28;38950;-75
2022/08/26 07:06:18;;;;;;;2.63;0.90;;;20.10;99.90;;;;;;5057382;28;38670;-75
2022/08/26 07:08:48;;;;;;;3.80;0.60;;;20.10;99.90;;;;;;5041701;28;38644;-76
2022/08/26 07:11:15;;;;;;;1.83;0.52;;;20.10;99.90;;;;;;5035242;28;39026;-75
2022/08/26 07:13:42;;;;;;;3.45;0.63;;;20.20;99.90;;;;;;5036674;28;37725;-76
2022/08/26 07:16:11;;;;;;;3.60;0.50;;;20.20;99.90;;;;;;5057056;28;38306;-76
2022/08/26 07:18:39;;;;;;;4.32;0.70;;;20.30;99.90;;;;;;5060556;28;36867;-75
2022/08/26 07:21:08;;;;;;;3.60;0.77;;;20.30;99.90;;;;;;5074260;28;38637;-76
2022/08/26 07:23:36;;;;;;;1.42;0.60;;;20.40;99.90;;;;;;5060269;28;39284;-76
2022/08/26 07:26:07;;;;;;;6.10;0.80;;;20.40;99.90;;;;;;5057816;28;38323;-76
2022/08/26 07:28:33;;;;;;;2.28;0.60;;;20.30;99.90;;;;;;5055900;28;37558;-75
2022/08/26 07:31:20;;;;;;;5.40;1.02;;;20.40;99.90;;;;;;5075812;28;39779;-76
2022/08/26 07:33:47;;;;;;;3.25;0.60;;;20.20;99.90;;;;;;5070303;28;48571;-76
2022/08/26 07:36:14;;;;;;;5.20;0.80;;;20.30;99.90;;;;;;5055499;28;38488;-77
2022/08/26 07:38:42;;;;;;;3.95;0.80;;;20.30;99.90;;;;;;5069842;28;36919;-75
2022/08/26 07:41:09;;;;;;;5.95;0.57;;;20.40;99.90;;;;;;5073685;28;39455;-75
2022/08/26 07:43:36;;;;;;;9.80;0.75;;;20.40;99.90;;;;;;5075503;28;39622;-77
2022/08/26 07:46:05;;;;;;;3.42;0.77;;;20.50;99.90;;;;;;5050012;28;38780;-76
2022/08/26 07:48:32;;;;;;;3.45;0.73;;;20.50;99.90;;;;;;5050307;28;36936;-76
2022/08/26 07:50:58;;;;;;;2.00;0.40;;;20.60;99.90;;;;;;5034314;28;39081;-76
2022/08/26 07:53:25;;;;;;;2.05;0.93;;;20.70;99.90;;;;;;5074654;27;39118;-77
2022/08/26 07:55:51;;;;;;;3.72;0.52;;;20.70;99.90;;;;;;5077735;28;38431;-77
2022/08/26 07:58:18;;;;;;;4.45;0.70;;;20.70;99.90;;;;;;5079864;27;36618;-76
2022/08/26 08:00:45;;;;;;;2.20;0.57;;;20.70;99.90;;;;;;5082143;28;39825;-77
2022/08/26 08:03:11;;;;;;;1.88;0.57;;;20.70;99.90;;;;;;5080959;27;39445;-77
2022/08/26 08:05:37;;;;;;;7.40;1.48;;;20.80;99.90;;;;;;5048583;28;38980;-76
2022/08/26 08:08:08;;;;;;;2.50;0.50;;;20.80;99.90;;;;;;5081252;28;37965;-76
2022/08/26 08:10:35;;;;;;;0.68;0.40;;;20.80;99.90;;;;;;5075289;28;38439;-76
2022/08/26 08:13:03;;;;;;;3.47;0.90;;;20.80;99.90;;;;;;5080298;27;38611;-76
2022/08/26 08:15:31;;;;;;;1.30;0.40;;;20.80;99.90;;;;;;5067933;28;39716;-77
2022/08/26 08:17:58;;;;;;;4.22;0.60;;;20.80;99.90;;;;;;5065694;28;38679;-76
2022/08/26 08:20:25;;;;;;;4.57;0.70;;;20.80;99.90;;;;;;5071150;27;38519;-76
2022/08/26 08:22:52;;;;;;;2.85;0.70;;;20.70;99.90;;;;;;5038448;28;39385;-76
2022/08/26 08:25:19;;;;;;;6.90;1.00;;;20.60;99.90;;;;;;5037783;28;40165;-77
2022/08/26 08:27:47;;;;;;;3.55;0.80;;;20.60;99.90;;;;;;5058266;28;38460;-77
2022/08/26 08:30:18;;;;;;;3.20;0.77;;;20.60;99.90;;;;;;5058302;28;38696;-78
2022/08/26 08:32:44;;;;;;;5.03;0.90;;;20.70;99.90;;;;;;5039741;28;42134;-77
2022/08/26 08:35:13;;;;;;;3.13;0.63;;;20.70;99.90;;;;;;5035925;28;37997;-77
2022/08/26 08:37:42;;;;;;;4.07;0.77;;;20.70;99.90;;;;;;5055995;28;37789;-77
2022/08/26 08:40:09;;;;;;;3.58;0.90;;;20.70;99.90;;;;;;5056845;28;38314;-77
2022/08/26 08:42:53;;;;;;;4.43;0.90;;;20.70;99.90;;;;;;5041029;28;37249;-77
2022/08/26 08:45:26;;;;;;;2.10;0.52;;;20.60;99.90;;;;;;5043144;28;39612;-77
2022/08/26 08:47:57;;;;;;;2.53;0.68;;;20.60;99.90;;;;;;5064176;28;38047;-78
2022/08/26 08:50:33;;;;;;;3.28;0.75;;;20.50;99.90;;;;;;5035422;28;37657;-77
2022/08/26 08:53:15;;;;;;;6.72;1.05;;;20.40;99.90;;;;;;5037782;28;38078;-77
2022/08/26 08:55:56;;;;;;;1.60;0.47;;;20.30;99.90;;;;;;5050322;28;47359;-77
2022/08/26 08:58:36;;;;;;;2.63;0.50;;;20.30;99.90;;;;;;5073771;28;38133;-77
2022/08/26 09:01:07;;;;;;;5.72;1.00;;;20.20;99.90;;;;;;5082511;28;37575;-77
2022/08/26 09:04:06;;;;;;;4.25;0.70;;;20.10;99.90;;;;;;5059601;28;38647;-76
2022/08/26 09:06:32;;;;;;;5.95;1.33;;;20.10;99.90;;;;;;5076477;28;48724;-77
2022/08/26 09:09:01;;;;;;;4.00;0.60;;;20.20;99.90;;;;;;5061669;28;37959;-77
2022/08/26 09:11:28;;;;;;;5.82;0.80;;;20.20;99.90;;;;;;5052971;28;46977;-77
2022/08/26 09:13:55;;;;;;;2.17;0.70;;;20.30;99.90;;;;;;5072639;28;39082;-77
2022/08/26 09:16:58;;;;;;;4.45;0.70;;;20.40;99.90;;;;;;5076896;28;38238;-77
2022/08/26 09:19:38;;;;;;;5.10;1.15;;;20.50;99.90;;;;;;5054582;28;37899;-77
2022/08/26 09:22:04;;;;;;;4.55;0.75;;;20.70;99.90;;;;;;5052448;28;40627;-77
2022/08/26 09:24:40;;;;;;;2.38;0.55;;;20.80;99.90;;;;;;5043754;28;38093;-77
2022/08/26 09:27:06;;;;;;;4.45;0.75;;;21.00;99.90;;;;;;5047723;28;36760;-77
2022/08/26 09:29:45;;;;;;;2.22;0.50;;;21.10;99.90;;;;;;5060233;28;38813;-77
2022/08/26 09:32:22;;;;;;;3.50;0.63;;;21.10;99.90;;;;;;5063349;28;38123;-77
2022/08/26 09:34:58;;;;;;;3.03;0.63;;;21.30;99.90;;;;;;5062989;28;38604;-79
2022/08/26 09:37:48;;;;;;;3.67;0.47;;;21.30;99.90;;;;;;5062245;27;38856;-77
2022/08/26 09:40:37;;;;;;;4.82;0.70;;;21.20;99.90;;;;;;5052441;28;38550;-76
2022/08/26 09:43:21;;;;;;;2.83;0.80;;;21.30;99.90;;;;;;5055466;28;40495;-77
2022/08/26 09:45:53;;;;;;;4.88;1.00;;;21.30;99.90;;;;;;5046625;28;38903;-77
2022/08/26 09:48:38;;;;;;;5.30;1.40;;;21.40;99.90;;;;;;5060061;28;34882;-78
2022/08/26 09:51:25;;;;;;;8.63;1.00;;;21.40;99.90;;;;;;5078664;28;36839;-77
2022/08/26 09:54:00;;;;;;;7.00;1.30;;;21.50;99.90;;;;;;5074130;27;39063;-78
2022/08/26 09:56:38;;;;;;;3.90;0.88;;;21.50;99.90;;;;;;5064089;28;47795;-77
2022/08/26 09:59:09;;;;;;;5.03;1.13;;;21.40;99.90;;;;;;5023802;28;38764;-77
2022/08/26 10:01:41;;;;;;;7.32;1.20;;;21.20;99.90;;;;;;5075523;28;37130;-76
2022/08/26 10:04:12;;;;;;;12.05;1.98;;;21.10;99.90;;;;;;5075834;28;39630;-77
2022/08/26 10:07:00;;;;;;;14.50;1.70;;;21.00;99.90;;;;;;5059084;28;39531;-77
2022/08/26 10:09:29;;;;;;;9.88;1.30;;;20.80;99.90;;;;;;5062411;28;37846;-77
2022/08/26 10:11:59;;;;;;;24.95;2.60;;;20.80;99.90;;;;;;5054941;28;37900;-77
2022/08/26 10:14:38;;;;;;;7.95;1.33;;;20.80;99.90;;;;;;5078031;28;37706;-77
2022/08/26 10:17:08;;;;;;;4.20;1.25;;;20.80;99.90;;;;;;5058015;27;37726;-77
2022/08/26 10:19:39;;;;;;;9.02;2.28;;;20.90;99.90;;;;;;5079574;28;38198;-77
2022/08/26 10:22:19;;;;;;;6.63;1.00;;;20.90;99.90;;;;;;5071259;28;36999;-77
2022/08/26 10:24:51;;;;;;;7.22;1.20;;;21.00;99.90;;;;;;5067840;28;39826;-77
2022/08/26 10:27:53;;;;;;;9.23;1.35;;;21.00;99.90;;;;;;5075246;27;37360;-77
2022/08/26 10:30:30;;;;;;;3.80;0.88;;;20.90;99.90;;;;;;5075044;28;37376;-77
2022/08/26 10:33:13;;;;;;;7.88;1.40;;;21.00;99.90;;;;;;5074687;28;37984;-77
2022/08/26 10:35:55;;;;;;;3.25;1.10;;;21.10;99.90;;;;;;5076413;28;48791;-78
2022/08/26 10:38:50;;;;;;;6.50;1.20;;;21.30;99.90;;;;;;5050730;28;40174;-77
2022/08/26 10:41:23;;;;;;;3.63;1.20;;;21.10;99.90;;;;;;5049844;28;39672;-78
2022/08/26 10:43:57;;;;;;;7.57;1.55;;;21.20;99.90;;;;;;5075460;27;37294;-77
2022/08/26 10:46:28;;;;;;;6.53;1.70;;;21.10;99.90;;;;;;5047574;28;38417;-77
2022/08/26 10:49:11;;;;;;;5.28;1.70;;;20.90;99.90;;;;;;5076575;27;38867;-77
2022/08/26 10:51:52;;;;;;;7.72;1.60;;;20.90;99.90;;;;;;5079282;28;48837;-77
2022/08/26 10:54:46;;;;;;;5.30;1.08;;;20.70;99.90;;;;;;5076133;28;38904;-77
2022/08/26 10:57:31;;;;;;;5.15;1.23;;;20.60;99.90;;;;;;5057681;27;39710;-77
2022/08/26 11:03:34;;;;;;;4.85;1.40;;;20.80;99.90;;;;;;5074772;28;48915;-77
2022/08/26 11:06:23;;;;;;;9.10;1.20;;;20.80;99.90;;;;;;5005955;28;37002;-77
2022/08/26 11:08:58;;;;;;;4.43;1.10;;;20.90;99.90;;;;;;5073572;28;48067;-77
2022/08/26 11:11:41;;;;;;;5.55;1.13;;;20.90;99.90;;;;;;5068665;28;38111;-77
2022/08/26 11:14:21;;;;;;;7.90;1.08;;;21.00;99.90;;;;;;5042949;28;37377;-77
2022/08/26 11:16:53;;;;;;;4.13;0.90;;;21.20;99.90;;;;;;5025832;28;39738;-77
2022/08/26 11:19:40;;;;;;;4.97;0.90;;;21.30;99.90;;;;;;5038080;28;40853;-77
2022/08/26 11:22:10;;;;;;;3.10;0.90;;;21.30;99.90;;;;;;5070213;28;38488;-77
2022/08/26 11:24:44;;;;;;;5.40;0.98;;;21.10;99.90;;;;;;5074207;28;38791;-77
2022/08/26 11:27:25;;;;;;;7.00;1.15;;;21.00;99.90;;;;;;5067993;28;37105;-77
2022/08/26 11:30:20;;;;;;;7.53;1.27;;;21.00;99.90;;;;;;5057786;28;39293;-76
2022/08/26 11:32:52;;;;;;;7.18;1.30;;;21.00;99.90;;;;;;5062565;28;46398;-77
2022/08/26 11:35:18;;;;;;;;;;;21.00;99.90;;;;;;5062032;28;37516;-77
2022/08/26 11:37:56;;;;;;;4.50;1.10;;;21.00;99.90;;;;;;5061037;28;36225;-78
2022/08/26 11:40:28;;;;;;;8.32;1.67;;;21.20;99.90;;;;;;5080131;28;39601;-77
2022/08/26 11:42:56;;;;;;;;;;;21.30;99.90;;;;;;5063834;28;37236;-77
2022/08/26 11:45:39;;;;;;;5.25;1.30;;;21.30;99.90;;;;;;5079514;27;41118;-78
2022/08/26 11:48:29;;;;;;;5.53;1.58;;;21.30;99.90;;;;;;5079492;28;36891;-78
2022/08/26 11:51:11;;;;;;;5.22;1.00;;;21.30;99.90;;;;;;5063013;28;38352;-78
2022/08/26 11:53:45;;;;;;;5.78;0.90;;;21.30;99.90;;;;;;5071419;28;48759;-78
2022/08/26 11:56:15;;;;;;;7.18;1.20;;;21.40;99.90;;;;;;5058819;28;36863;-78
2022/08/26 11:58:43;;;;;;;4.28;1.10;;;21.30;99.90;;;;;;5065150;27;37009;-78
2022/08/26 12:01:20;;;;;;;4.75;1.10;;;21.30;99.90;;;;;;5065378;28;38525;-78
2022/08/26 12:03:49;;;;;;;4.30;1.20;;;21.20;99.90;;;;;;5081703;28;38416;-77
2022/08/26 12:06:20;;;;;;;5.63;1.08;;;21.20;99.90;;;;;;5079578;28;38251;-78
2022/08/26 12:08:47;;;;;;;8.38;1.42;;;21.10;99.90;;;;;;5081661;27;38056;-77
2022/08/26 12:11:22;;;;;;;5.03;1.00;;;21.10;99.90;;;;;;5058378;28;39113;-78
2022/08/26 12:14:02;;;;;;;8.68;1.42;;;21.20;99.90;;;;;;5061846;28;37721;-78
2022/08/26 12:16:31;;;;;;;4.63;1.33;;;21.40;99.90;;;;;;5064974;28;47326;-78
2022/08/26 12:18:58;;;;;;;4.95;0.88;;;21.50;99.90;;;;;;5077031;28;36897;-78
2022/08/26 12:21:30;;;;;;;8.18;1.73;;;21.50;99.90;;;;;;5061836;28;38546;-78
2022/08/26 12:24:02;;;;;;;5.10;1.10;;;21.60;99.90;;;;;;5062601;28;37946;-78
2022/08/26 12:26:31;;;;;;;4.68;1.17;;;21.60;99.90;;;;;;5069966;28;47413;-78
2022/08/26 12:29:03;;;;;;;5.75;1.10;;;21.60;99.90;;;;;;5058998;28;37889;-79
2022/08/26 12:31:49;;;;;;;5.68;1.15;;;21.60;99.90;;;;;;5059089;28;39452;-80
2022/08/26 12:34:16;;;;;;;4.72;0.90;;;21.50;99.90;;;;;;5076985;28;38807;-79
2022/08/26 12:36:46;;;;;;;3.55;1.00;;;21.50;99.90;;;;;;5078946;28;40186;-77
2022/08/26 12:39:25;;;;;;;6.30;1.10;;;21.30;99.90;;;;;;5081693;28;37829;-79
2022/08/26 12:41:57;;;;;;;4.85;1.17;;;21.30;99.90;;;;;;5066304;28;38012;-79
2022/08/26 12:44:56;;;;;;;8.15;1.20;;;21.50;99.90;;;;;;5063867;27;39074;-79
2022/08/26 12:47:35;;;;;;;5.40;0.98;;;21.60;99.90;;;;;;5080996;28;38015;-80
2022/08/26 12:50:15;;;;;;;6.30;1.05;;;21.70;99.90;;;;;;5077640;28;39420;-77
2022/08/26 12:53:02;;;;;;;6.78;1.30;;;21.80;99.90;;;;;;5079751;28;48463;-78
2022/08/26 12:55:31;;;;;;;5.28;1.48;;;21.90;99.90;;;;;;5060118;28;47214;-78
2022/08/26 12:58:21;;;;;;;5.15;0.95;;;21.90;99.90;;;;;;5081180;28;37594;-78
2022/08/26 13:00:57;;;;;;;4.28;1.15;;;21.90;99.90;;;;;;5079384;28;48858;-78
2022/08/26 13:03:36;;;;;;;4.35;1.10;;;21.90;99.90;;;;;;5064860;28;37678;-78
2022/08/26 13:06:21;;;;;;;5.20;0.88;;;21.80;99.90;;;;;;5078711;28;39688;-78
2022/08/26 13:09:18;;;;;;;7.80;2.00;;;21.70;99.90;;;;;;5080065;28;38889;-79
2022/08/26 13:11:44;;;;;;;3.65;0.90;;;21.70;99.90;;;;;;5045496;28;47232;-77
2022/08/26 13:14:21;;;;;;;6.43;1.08;;;21.80;99.90;;;;;;5067871;28;38351;-77